KGSP/GSP METAR and TAF weather

Enter ICAO airport designator
Station Type Date Time Source
KGSP METAR 2022/12/05 12:53 UTC NOAA

KGSP 051253Z AUTO 02004KT 10SM BKN033 03/00 A3019 RMK AO2 SLP223 T00330000 $


Station Type Date Time Source
KGSP Decoded METAR 2022/12/05 12:53 UTC NOAA

GREER GREENVILLE SPARTBURG, SC, United States (KGSP) 34-53N 82-13W 286M
Dec 05, 2022 - 07:53 AM EST / 2022.12.05 1253 UTC
Wind: from the NNE (020 degrees) at 5 MPH (4 KT):0
Visibility: 10 mile(s):0
Sky conditions: mostly cloudy
Temperature: 37.9 F (3.3 C)
Dew Point: 32.0 F (0.0 C)
Relative Humidity: 78%
Pressure (altimeter): 30.19 in. Hg (1022 hPa)
ob: KGSP 051253Z AUTO 02004KT 10SM BKN033 03/00 A3019 RMK AO2 SLP223 T00330000
cycle: 13

Station Type Date Time Source
KGSP TAF 2022/12/05 12:36 UTC NOAA

TAF KGSP 051135Z 0512/0612 03006KT P6SM BKN035
FM051700 07005KT P6SM OVC025
FM051900 07005KT P6SM VCSH OVC015
FM052200 06004KT 4SM -RA BR OVC007
FM060000 06003KT 4SM -RA BR OVC005
FM060600 04003KT 2SM -SHRA BR OVC003

Example: see airport list